sensor_id;sensor_type;location;lat;lon;timestamp;pressure;altitude;pressure_sealevel;temperature;humidity
13974;BME280;7060;43.770;4.008;2024-03-08T00:00:18;100679.03;;;10.39;72.23
13974;BME280;7060;43.770;4.008;2024-03-08T00:02:47;100675.34;;;10.40;71.45
13974;BME280;7060;43.770;4.008;2024-03-08T00:05:17;100675.66;;;10.37;71.49
13974;BME280;7060;43.770;4.008;2024-03-08T00:07:46;100677.34;;;10.38;71.98
13974;BME280;7060;43.770;4.008;2024-03-08T00:10:14;100664.13;;;10.27;71.54
13974;BME280;7060;43.770;4.008;2024-03-08T00:12:44;100680.00;;;10.38;71.96
13974;BME280;7060;43.770;4.008;2024-03-08T00:15:15;100672.28;;;10.35;71.35
13974;BME280;7060;43.770;4.008;2024-03-08T00:17:46;100681.13;;;10.36;71.71
13974;BME280;7060;43.770;4.008;2024-03-08T00:20:15;100669.31;;;10.29;71.96
13974;BME280;7060;43.770;4.008;2024-03-08T00:22:46;100680.00;;;10.38;71.57
13974;BME280;7060;43.770;4.008;2024-03-08T00:25:14;100680.97;;;10.37;71.64
13974;BME280;7060;43.770;4.008;2024-03-08T00:27:43;100672.00;;;10.38;71.80
13974;BME280;7060;43.770;4.008;2024-03-08T00:30:11;100679.03;;;10.39;71.95
13974;BME280;7060;43.770;4.008;2024-03-08T00:32:41;100661.16;;;10.40;71.77
13974;BME280;7060;43.770;4.008;2024-03-08T00:35:11;100659.50;;;10.39;72.21
13974;BME280;7060;43.770;4.008;2024-03-08T00:37:39;100665.81;;;10.38;72.49
13974;BME280;7060;43.770;4.008;2024-03-08T00:40:09;100661.31;;;10.38;72.70
13974;BME280;7060;43.770;4.008;2024-03-08T00:42:38;100650.94;;;10.35;72.15
13974;BME280;7060;43.770;4.008;2024-03-08T00:45:07;100635.75;;;10.26;72.39
13974;BME280;7060;43.770;4.008;2024-03-08T00:47:37;100651.91;;;10.34;72.45
13974;BME280;7060;43.770;4.008;2024-03-08T00:50:06;100645.03;;;10.32;72.47
13974;BME280;7060;43.770;4.008;2024-03-08T00:52:36;100639.81;;;10.30;72.56
13974;BME280;7060;43.770;4.008;2024-03-08T00:55:05;100631.81;;;10.30;72.75
13974;BME280;7060;43.770;4.008;2024-03-08T00:57:34;100634.50;;;10.30;72.26
13974;BME280;7060;43.770;4.008;2024-03-08T01:00:03;100630.84;;;10.31;72.64
13974;BME280;7060;43.770;4.008;2024-03-08T01:02:36;100624.81;;;10.29;72.63
13974;BME280;7060;43.770;4.008;2024-03-08T01:05:05;100624.81;;;10.29;72.56
13974;BME280;7060;43.770;4.008;2024-03-08T01:07:34;100615.38;;;10.25;72.65
13974;BME280;7060;43.770;4.008;2024-03-08T01:10:04;100611.03;;;10.24;73.04
13974;BME280;7060;43.770;4.008;2024-03-08T01:12:36;100605.38;;;10.17;73.00
13974;BME280;7060;43.770;4.008;2024-03-08T01:15:05;100607.81;;;10.21;73.09
13974;BME280;7060;43.770;4.008;2024-03-08T01:17:33;100606.81;;;10.22;72.65
13974;BME280;7060;43.770;4.008;2024-03-08T01:20:02;100602.47;;;10.21;72.38
13974;BME280;7060;43.770;4.008;2024-03-08T01:22:30;100605.28;;;10.19;72.70
13974;BME280;7060;43.770;4.008;2024-03-08T01:24:58;100602.31;;;10.22;72.25
13974;BME280;7060;43.770;4.008;2024-03-08T01:27:28;100607.66;;;10.22;72.65
13974;BME280;7060;43.770;4.008;2024-03-08T01:29:56;100597.50;;;10.16;72.53
13974;BME280;7060;43.770;4.008;2024-03-08T01:32:25;100594.72;;;10.17;72.80
13974;BME280;7060;43.770;4.008;2024-03-08T01:34:53;100591.19;;;10.17;72.36
13974;BME280;7060;43.770;4.008;2024-03-08T01:37:21;100598.34;;;10.16;72.57
13974;BME280;7060;43.770;4.008;2024-03-08T01:39:49;100590.22;;;10.18;72.58
13974;BME280;7060;43.770;4.008;2024-03-08T01:42:17;100588.53;;;10.17;72.07
13974;BME280;7060;43.770;4.008;2024-03-08T01:44:46;100579.31;;;10.21;72.11
13974;BME280;7060;43.770;4.008;2024-03-08T01:47:14;100570.84;;;10.16;71.97
13974;BME280;7060;43.770;4.008;2024-03-08T01:49:43;100566.63;;;10.13;72.33
13974;BME280;7060;43.770;4.008;2024-03-08T01:52:12;100566.22;;;10.08;72.00
13974;BME280;7060;43.770;4.008;2024-03-08T01:54:40;100562.03;;;10.06;72.23
13974;BME280;7060;43.770;4.008;2024-03-08T01:57:08;100573.66;;;10.05;72.47
13974;BME280;7060;43.770;4.008;2024-03-08T01:59:37;100570.28;;;10.03;72.49
13974;BME280;7060;43.770;4.008;2024-03-08T02:02:06;100562.44;;;10.01;72.29
13974;BME280;7060;43.770;4.008;2024-03-08T02:04:36;100566.09;;;10.00;71.88
13974;BME280;7060;43.770;4.008;2024-03-08T02:07:05;100554.00;;;9.96;72.26
13974;BME280;7060;43.770;4.008;2024-03-08T02:09:36;100560.31;;;9.95;71.93
13974;BME280;7060;43.770;4.008;2024-03-08T02:12:05;100554.84;;;9.97;72.37
13974;BME280;7060;43.770;4.008;2024-03-08T02:14:36;100554.56;;;10.00;71.66
13974;BME280;7060;43.770;4.008;2024-03-08T02:17:06;100554.28;;;10.03;72.12
13974;BME280;7060;43.770;4.008;2024-03-08T02:19:34;100551.50;;;10.04;71.39
13974;BME280;7060;43.770;4.008;2024-03-08T02:22:05;100547.84;;;10.05;71.72
13974;BME280;7060;43.770;4.008;2024-03-08T02:24:33;100535.34;;;10.06;71.69
13974;BME280;7060;43.770;4.008;2024-03-08T02:27:01;100539.13;;;10.03;71.59
13974;BME280;7060;43.770;4.008;2024-03-08T02:29:30;100533.81;;;10.03;71.63
13974;BME280;7060;43.770;4.008;2024-03-08T02:31:59;100534.09;;;10.00;71.22
13974;BME280;7060;43.770;4.008;2024-03-08T02:34:27;100526.50;;;9.96;71.88
13974;BME280;7060;43.770;4.008;2024-03-08T02:36:56;100528.19;;;9.97;71.89
13974;BME280;7060;43.770;4.008;2024-03-08T02:39:25;100513.88;;;9.98;71.48
13974;BME280;7060;43.770;4.008;2024-03-08T02:41:54;100509.38;;;9.98;71.41
13974;BME280;7060;43.770;4.008;2024-03-08T02:44:22;100495.06;;;9.90;70.89
13974;BME280;7060;43.770;4.008;2024-03-08T02:46:50;100504.19;;;9.97;71.63
13974;BME280;7060;43.770;4.008;2024-03-08T02:49:22;100497.88;;;9.98;71.57
13974;BME280;7060;43.770;4.008;2024-03-08T02:51:50;100497.59;;;10.01;71.51
13974;BME280;7060;43.770;4.008;2024-03-08T02:54:18;100491.41;;;10.00;71.19
13974;BME280;7060;43.770;4.008;2024-03-08T02:56:47;100488.75;;;10.00;70.91
13974;BME280;7060;43.770;4.008;2024-03-08T02:59:17;100491.41;;;10.00;71.30
13974;BME280;7060;43.770;4.008;2024-03-08T03:01:46;100486.38;;;9.97;70.63
13974;BME280;7060;43.770;4.008;2024-03-08T03:04:14;100459.00;;;9.85;70.89
13974;BME280;7060;43.770;4.008;2024-03-08T03:06:41;100502.78;;;10.12;70.18
13974;BME280;7060;43.770;4.008;2024-03-08T03:09:09;100502.34;;;10.16;70.82
13974;BME280;7060;43.770;4.008;2024-03-08T03:11:38;100492.97;;;10.22;70.38
13974;BME280;7060;43.770;4.008;2024-03-08T03:14:08;100490.28;;;10.22;69.73
13974;BME280;7060;43.770;4.008;2024-03-08T03:16:36;100479.19;;;10.17;70.38
13974;BME280;7060;43.770;4.008;2024-03-08T03:19:04;100470.63;;;10.13;69.90
13974;BME280;7060;43.770;4.008;2024-03-08T03:21:32;100461.78;;;10.13;69.13
13974;BME280;7060;43.770;4.008;2024-03-08T03:24:03;100459.28;;;10.11;69.73
13974;BME280;7060;43.770;4.008;2024-03-08T03:26:31;100451.84;;;10.05;69.59
13974;BME280;7060;43.770;4.008;2024-03-08T03:28:59;100453.66;;;10.05;69.39
13974;BME280;7060;43.770;4.008;2024-03-08T03:31:31;100449.31;;;10.04;69.03
13974;BME280;7060;43.770;4.008;2024-03-08T03:33:59;100446.94;;;10.01;68.72
13974;BME280;7060;43.770;4.008;2024-03-08T03:36:29;100448.91;;;9.99;68.94
13974;BME280;7060;43.770;4.008;2024-03-08T03:38:57;100451.84;;;9.96;68.83
13974;BME280;7060;43.770;4.008;2024-03-08T03:41:37;100457.47;;;9.93;68.45
13974;BME280;7060;43.770;4.008;2024-03-08T03:44:05;100449.88;;;9.88;67.84
13974;BME280;7060;43.770;4.008;2024-03-08T03:46:35;100454.50;;;9.86;67.71
13974;BME280;7060;43.770;4.008;2024-03-08T03:49:03;100459.84;;;9.86;68.13
13974;BME280;7060;43.770;4.008;2024-03-08T03:51:31;100446.22;;;9.89;67.37
13974;BME280;7060;43.770;4.008;2024-03-08T03:53:59;100446.38;;;9.88;67.53
13974;BME280;7060;43.770;4.008;2024-03-08T03:56:27;100447.34;;;9.87;67.55
13974;BME280;7060;43.770;4.008;2024-03-08T03:58:55;100439.34;;;9.87;67.54
13974;BME280;7060;43.770;4.008;2024-03-08T04:01:23;100438.50;;;9.86;66.75
13974;BME280;7060;43.770;4.008;2024-03-08T04:03:53;100418.16;;;9.85;66.37
13974;BME280;7060;43.770;4.008;2024-03-08T04:06:21;100397.44;;;9.69;66.88
13974;BME280;7060;43.770;4.008;2024-03-08T04:08:50;100407.25;;;9.78;67.30
13974;BME280;7060;43.770;4.008;2024-03-08T04:11:18;100392.38;;;9.76;66.44
13974;BME280;7060;43.770;4.008;2024-03-08T04:13:47;100395.91;;;9.76;66.37
13974;BME280;7060;43.770;4.008;2024-03-08T04:16:15;100396.59;;;9.78;66.28
13974;BME280;7060;43.770;4.008;2024-03-08T04:18:44;100392.13;;;9.79;66.48
13974;BME280;7060;43.770;4.008;2024-03-08T04:21:14;100388.31;;;9.81;65.89
13974;BME280;7060;43.770;4.008;2024-03-08T04:23:42;100396.59;;;9.78;65.78
13974;BME280;7060;43.770;4.008;2024-03-08T04:26:11;100394.91;;;9.77;66.46
13974;BME280;7060;43.770;4.008;2024-03-08T04:28:43;100398.69;;;9.75;66.05
13974;BME280;7060;43.770;4.008;2024-03-08T04:31:11;100405.84;;;9.74;66.54
13974;BME280;7060;43.770;4.008;2024-03-08T04:33:39;100412.59;;;9.78;66.58
13974;BME280;7060;43.770;4.008;2024-03-08T04:36:07;100407.81;;;9.72;65.64
13974;BME280;7060;43.770;4.008;2024-03-08T04:38:41;100399.25;;;9.69;65.96
13974;BME280;7060;43.770;4.008;2024-03-08T04:41:10;100406.84;;;9.73;65.98
13974;BME280;7060;43.770;4.008;2024-03-08T04:43:38;100397.72;;;9.76;66.08
13974;BME280;7060;43.770;4.008;2024-03-08T04:46:06;100406.56;;;9.76;65.88
13974;BME280;7060;43.770;4.008;2024-03-08T04:48:35;100409.38;;;9.75;66.51
13974;BME280;7060;43.770;4.008;2024-03-08T04:51:04;100409.78;;;9.80;65.92
13974;BME280;7060;43.770;4.008;2024-03-08T04:53:32;100402.63;;;9.80;66.25
13974;BME280;7060;43.770;4.008;2024-03-08T04:56:03;100408.09;;;9.79;65.72
13974;BME280;7060;43.770;4.008;2024-03-08T04:58:33;100398.69;;;9.75;65.94
13974;BME280;7060;43.770;4.008;2024-03-08T05:01:03;100395.47;;;9.81;65.49
13974;BME280;7060;43.770;4.008;2024-03-08T05:03:32;100383.00;;;9.81;65.25
13974;BME280;7060;43.770;4.008;2024-03-08T05:06:00;100389.59;;;9.77;65.21
13974;BME280;7060;43.770;4.008;2024-03-08T05:08:28;100386.91;;;9.77;65.78
13974;BME280;7060;43.770;4.008;2024-03-08T05:10:56;100376.97;;;9.79;65.72
13974;BME280;7060;43.770;4.008;2024-03-08T05:13:25;100379.75;;;9.78;65.62
13974;BME280;7060;43.770;4.008;2024-03-08T05:15:53;100376.53;;;9.74;65.11
13974;BME280;7060;43.770;4.008;2024-03-08T05:18:25;100361.53;;;9.64;65.92
13974;BME280;7060;43.770;4.008;2024-03-08T05:20:55;100367.72;;;9.64;65.89
13974;BME280;7060;43.770;4.008;2024-03-08T05:23:23;100373.59;;;9.68;65.79
13974;BME280;7060;43.770;4.008;2024-03-08T05:25:51;100359.84;;;9.72;65.39
13974;BME280;7060;43.770;4.008;2024-03-08T05:28:19;100368.81;;;9.71;65.57
13974;BME280;7060;43.770;4.008;2024-03-08T05:30:48;100374.72;;;9.75;64.96
13974;BME280;7060;43.770;4.008;2024-03-08T05:33:16;100364.19;;;9.73;64.66
13974;BME280;7060;43.770;4.008;2024-03-08T05:35:46;100363.34;;;9.73;64.86
13974;BME280;7060;43.770;4.008;2024-03-08T05:38:14;100362.50;;;9.72;64.99
13974;BME280;7060;43.770;4.008;2024-03-08T05:40:42;100358.88;;;9.73;64.84
13974;BME280;7060;43.770;4.008;2024-03-08T05:43:10;100354.53;;;9.72;64.85
13974;BME280;7060;43.770;4.008;2024-03-08T05:45:38;100353.69;;;9.72;65.56
13974;BME280;7060;43.770;4.008;2024-03-08T05:48:08;100355.91;;;9.76;64.44
13974;BME280;7060;43.770;4.008;2024-03-08T05:50:36;100346.09;;;9.77;65.05
13974;BME280;7060;43.770;4.008;2024-03-08T05:53:05;100349.47;;;9.79;64.49
13974;BME280;7060;43.770;4.008;2024-03-08T05:55:33;100343.28;;;9.78;64.26
13974;BME280;7060;43.770;4.008;2024-03-08T05:58:02;100342.44;;;9.78;64.33
13974;BME280;7060;43.770;4.008;2024-03-08T06:00:30;100345.81;;;9.80;64.68
13974;BME280;7060;43.770;4.008;2024-03-08T06:02:58;100347.22;;;9.84;65.20
13974;BME280;7060;43.770;4.008;2024-03-08T06:05:28;100345.22;;;9.86;64.26
13974;BME280;7060;43.770;4.008;2024-03-08T06:07:56;100348.06;;;9.84;64.94
13974;BME280;7060;43.770;4.008;2024-03-08T06:10:24;100326.88;;;9.73;64.68
13974;BME280;7060;43.770;4.008;2024-03-08T06:12:52;100332.06;;;9.75;65.24
13974;BME280;7060;43.770;4.008;2024-03-08T06:15:21;100327.44;;;9.67;65.26
13974;BME280;7060;43.770;4.008;2024-03-08T06:17:49;100327.03;;;9.62;65.46
13974;BME280;7060;43.770;4.008;2024-03-08T06:20:19;100320.72;;;9.63;64.62
13974;BME280;7060;43.770;4.008;2024-03-08T06:22:54;100324.66;;;9.69;64.62
13974;BME280;7060;43.770;4.008;2024-03-08T06:25:22;100320.84;;;9.71;64.97
13974;BME280;7060;43.770;4.008;2024-03-08T06:27:50;100325.91;;;9.74;64.81
13974;BME280;7060;43.770;4.008;2024-03-08T06:30:20;100315.94;;;9.76;65.25
13974;BME280;7060;43.770;4.008;2024-03-08T06:32:48;100326.75;;;9.75;65.09
13974;BME280;7060;43.770;4.008;2024-03-08T06:35:16;100326.75;;;9.75;64.65
13974;BME280;7060;43.770;4.008;2024-03-08T06:37:44;100325.06;;;9.74;64.75
13974;BME280;7060;43.770;4.008;2024-03-08T06:40:14;100332.91;;;9.75;64.95
13974;BME280;7060;43.770;4.008;2024-03-08T06:42:42;100339.22;;;9.74;64.27
13974;BME280;7060;43.770;4.008;2024-03-08T06:45:10;100337.25;;;9.76;64.25
13974;BME280;7060;43.770;4.008;2024-03-08T06:47:39;100328.16;;;9.69;64.70
13974;BME280;7060;43.770;4.008;2024-03-08T06:50:09;100332.78;;;9.67;64.92
13974;BME280;7060;43.770;4.008;2024-03-08T06:52:38;100338.25;;;9.66;64.57
13974;BME280;7060;43.770;4.008;2024-03-08T06:55:07;100326.75;;;9.65;65.76
13974;BME280;7060;43.770;4.008;2024-03-08T06:57:40;100338.09;;;9.67;65.72
13974;BME280;7060;43.770;4.008;2024-03-08T07:00:09;100325.91;;;9.65;65.85
13974;BME280;7060;43.770;4.008;2024-03-08T07:02:40;100325.06;;;9.64;66.46
13974;BME280;7060;43.770;4.008;2024-03-08T07:05:09;100322.41;;;9.64;66.02
13974;BME280;7060;43.770;4.008;2024-03-08T07:07:37;100318.91;;;9.64;66.44
13974;BME280;7060;43.770;4.008;2024-03-08T07:10:08;100307.41;;;9.63;66.40
13974;BME280;7060;43.770;4.008;2024-03-08T07:12:38;100306.69;;;9.61;67.41
13974;BME280;7060;43.770;4.008;2024-03-08T07:15:08;100320.03;;;9.61;67.78
13974;BME280;7060;43.770;4.008;2024-03-08T07:17:40;100315.56;;;9.52;67.58
13974;BME280;7060;43.770;4.008;2024-03-08T07:20:11;100303.38;;;9.49;68.00
13974;BME280;7060;43.770;4.008;2024-03-08T07:22:40;100305.19;;;9.49;68.00
13974;BME280;7060;43.770;4.008;2024-03-08T07:25:12;100291.47;;;9.44;68.92
13974;BME280;7060;43.770;4.008;2024-03-08T07:27:49;100293.28;;;9.43;68.55
13974;BME280;7060;43.770;4.008;2024-03-08T07:30:20;100283.59;;;9.42;69.04
13974;BME280;7060;43.770;4.008;2024-03-08T07:33:06;100290.91;;;9.40;68.27
13974;BME280;7060;43.770;4.008;2024-03-08T07:35:34;100288.66;;;9.45;69.16
13974;BME280;7060;43.770;4.008;2024-03-08T07:38:04;100286.00;;;9.45;68.47
13974;BME280;7060;43.770;4.008;2024-03-08T07:40:35;100282.63;;;9.43;67.99
13974;BME280;7060;43.770;4.008;2024-03-08T07:43:06;100281.94;;;9.41;68.82
13974;BME280;7060;43.770;4.008;2024-03-08T07:45:35;100266.78;;;9.42;68.08
13974;BME280;7060;43.770;4.008;2024-03-08T07:48:04;100270.44;;;9.41;68.16
13974;BME280;7060;43.770;4.008;2024-03-08T07:50:36;100267.06;;;9.39;68.25
13974;BME280;7060;43.770;4.008;2024-03-08T07:53:06;100272.53;;;9.37;68.37
13974;BME280;7060;43.770;4.008;2024-03-08T07:55:34;100283.06;;;9.39;68.50
13974;BME280;7060;43.770;4.008;2024-03-08T07:58:03;100279.41;;;9.40;68.15
13974;BME280;7060;43.770;4.008;2024-03-08T08:00:31;100279.41;;;9.40;68.35
13974;BME280;7060;43.770;4.008;2024-03-08T08:03:00;100275.06;;;9.39;68.77
13974;BME280;7060;43.770;4.008;2024-03-08T08:05:29;100268.88;;;9.38;68.80
13974;BME280;7060;43.770;4.008;2024-03-08T08:07:59;100263.56;;;9.38;69.93
13974;BME280;7060;43.770;4.008;2024-03-08T08:10:27;100257.41;;;9.38;69.78
13974;BME280;7060;43.770;4.008;2024-03-08T08:12:55;100257.53;;;9.36;69.60
13974;BME280;7060;43.770;4.008;2024-03-08T08:15:23;100248.00;;;9.34;69.91
13974;BME280;7060;43.770;4.008;2024-03-08T08:17:51;100242.69;;;9.34;68.92
13974;BME280;7060;43.770;4.008;2024-03-08T08:20:21;100242.41;;;9.37;69.50
13974;BME280;7060;43.770;4.008;2024-03-08T08:22:49;100230.34;;;9.33;69.11
13974;BME280;7060;43.770;4.008;2024-03-08T08:25:18;100231.19;;;9.33;69.73
13974;BME280;7060;43.770;4.008;2024-03-08T08:27:47;100229.06;;;9.37;69.34
13974;BME280;7060;43.770;4.008;2024-03-08T08:30:15;100227.13;;;9.39;69.26
13974;BME280;7060;43.770;4.008;2024-03-08T08:32:43;100214.63;;;9.39;69.78
13974;BME280;7060;43.770;4.008;2024-03-08T08:35:14;100209.59;;;9.36;69.17
13974;BME280;7060;43.770;4.008;2024-03-08T08:37:43;100193.47;;;9.38;69.75
13974;BME280;7060;43.770;4.008;2024-03-08T08:40:12;100196.56;;;9.33;69.93
13974;BME280;7060;43.770;4.008;2024-03-08T08:42:44;100182.41;;;9.33;70.01
13974;BME280;7060;43.770;4.008;2024-03-08T08:45:16;100177.78;;;9.35;69.92
13974;BME280;7060;43.770;4.008;2024-03-08T08:47:51;100166.75;;;9.30;70.56
13974;BME280;7060;43.770;4.008;2024-03-08T08:50:19;100155.78;;;9.33;70.57
13974;BME280;7060;43.770;4.008;2024-03-08T08:52:52;100156.91;;;9.30;70.61
13974;BME280;7060;43.770;4.008;2024-03-08T08:55:20;100150.22;;;9.26;70.65
13974;BME280;7060;43.770;4.008;2024-03-08T08:57:52;100146.72;;;9.26;70.72
13974;BME280;7060;43.770;4.008;2024-03-08T09:00:21;100151.75;;;9.29;70.97
13974;BME280;7060;43.770;4.008;2024-03-08T09:02:54;100128.22;;;9.24;71.00
13974;BME280;7060;43.770;4.008;2024-03-08T09:05:25;100128.75;;;9.28;70.42
13974;BME280;7060;43.770;4.008;2024-03-08T09:07:54;100114.06;;;9.24;71.71
13974;BME280;7060;43.770;4.008;2024-03-08T09:10:23;100116.03;;;9.22;70.53
13974;BME280;7060;43.770;4.008;2024-03-08T09:12:56;100109.72;;;9.23;70.45
13974;BME280;7060;43.770;4.008;2024-03-08T09:15:26;100109.84;;;9.21;71.57
13974;BME280;7060;43.770;4.008;2024-03-08T09:17:56;100118.25;;;9.26;71.41
13974;BME280;7060;43.770;4.008;2024-03-08T09:20:24;100110.63;;;9.31;71.27
13974;BME280;7060;43.770;4.008;2024-03-08T09:22:52;100109.50;;;9.34;72.14
13974;BME280;7060;43.770;4.008;2024-03-08T09:25:23;100111.78;;;9.29;71.67
13974;BME280;7060;43.770;4.008;2024-03-08T09:27:52;100110.41;;;9.25;72.02
13974;BME280;7060;43.770;4.008;2024-03-08T09:30:21;100120.06;;;9.26;72.67
13974;BME280;7060;43.770;4.008;2024-03-08T09:32:49;100126.09;;;9.28;72.12
13974;BME280;7060;43.770;4.008;2024-03-08T09:35:18;100142.44;;;9.33;72.52
13974;BME280;7060;43.770;4.008;2024-03-08T09:37:46;100135.84;;;9.37;72.29
13974;BME280;7060;43.770;4.008;2024-03-08T09:40:18;100139.75;;;9.42;72.99
13974;BME280;7060;43.770;4.008;2024-03-08T09:42:48;100129.94;;;9.43;73.20
13974;BME280;7060;43.770;4.008;2024-03-08T09:45:17;100130.25;;;9.40;73.54
13974;BME280;7060;43.770;4.008;2024-03-08T09:47:48;100140.06;;;9.39;73.80
13974;BME280;7060;43.770;4.008;2024-03-08T09:50:17;100138.22;;;9.40;73.95
13974;BME280;7060;43.770;4.008;2024-03-08T09:52:47;100117.91;;;9.39;75.03
13974;BME280;7060;43.770;4.008;2024-03-08T09:55:16;100101.16;;;9.29;74.79
13974;BME280;7060;43.770;4.008;2024-03-08T09:57:51;100094.72;;;9.22;76.21
13974;BME280;7060;43.770;4.008;2024-03-08T10:00:37;99989.44;;;8.63;76.08
13974;BME280;7060;43.770;4.008;2024-03-08T10:03:05;100070.06;;;9.20;76.32
13974;BME280;7060;43.770;4.008;2024-03-08T10:05:33;100076.06;;;9.22;75.80
13974;BME280;7060;43.770;4.008;2024-03-08T10:08:01;100068.38;;;9.19;76.76
13974;BME280;7060;43.770;4.008;2024-03-08T10:10:29;100075.69;;;9.16;76.78
13974;BME280;7060;43.770;4.008;2024-03-08T10:12:58;100067.41;;;9.20;78.01
13974;BME280;7060;43.770;4.008;2024-03-08T10:15:27;100031.56;;;9.04;78.06
13974;BME280;7060;43.770;4.008;2024-03-08T10:17:56;100050.97;;;9.24;78.42
13974;BME280;7060;43.770;4.008;2024-03-08T10:20:24;100023.84;;;9.11;77.94
13974;BME280;7060;43.770;4.008;2024-03-08T10:22:54;100045.22;;;9.29;78.27
13974;BME280;7060;43.770;4.008;2024-03-08T10:25:36;100041.03;;;9.26;79.12
13974;BME280;7060;43.770;4.008;2024-03-08T10:28:06;100050.63;;;9.37;79.26
13974;BME280;7060;43.770;4.008;2024-03-08T10:30:34;100031.69;;;9.40;79.49
13974;BME280;7060;43.770;4.008;2024-03-08T10:33:02;100031.53;;;9.41;78.63
13974;BME280;7060;43.770;4.008;2024-03-08T10:35:32;100029.03;;;9.40;79.18
13974;BME280;7060;43.770;4.008;2024-03-08T10:38:00;100023.53;;;9.41;79.55
13974;BME280;7060;43.770;4.008;2024-03-08T10:40:35;100020.03;;;9.41;80.19
13974;BME280;7060;43.770;4.008;2024-03-08T10:43:03;100008.78;;;9.47;79.72
13974;BME280;7060;43.770;4.008;2024-03-08T10:45:35;100028.13;;;9.49;79.66
13974;BME280;7060;43.770;4.008;2024-03-08T10:48:20;100020.16;;;9.49;79.64
13974;BME280;7060;43.770;4.008;2024-03-08T10:50:52;99994.25;;;9.41;80.45
13974;BME280;7060;43.770;4.008;2024-03-08T10:53:22;100013.06;;;9.58;80.58
13974;BME280;7060;43.770;4.008;2024-03-08T10:55:53;100001.25;;;9.60;80.62
13974;BME280;7060;43.770;4.008;2024-03-08T10:58:22;99993.28;;;9.60;79.68
13974;BME280;7060;43.770;4.008;2024-03-08T11:00:55;99991.84;;;9.66;79.64
13974;BME280;7060;43.770;4.008;2024-03-08T11:03:51;99999.00;;;9.65;80.08
13974;BME280;7060;43.770;4.008;2024-03-08T11:06:23;99995.47;;;9.65;79.70
13974;BME280;7060;43.770;4.008;2024-03-08T11:08:57;100006.16;;;9.65;80.14
13974;BME280;7060;43.770;4.008;2024-03-08T11:11:27;99987.03;;;9.69;80.24
13974;BME280;7060;43.770;4.008;2024-03-08T11:14:01;99977.59;;;9.75;80.36
13974;BME280;7060;43.770;4.008;2024-03-08T11:16:40;99987.81;;;9.79;79.67
13974;BME280;7060;43.770;4.008;2024-03-08T11:19:24;99991.63;;;9.77;79.99
13974;BME280;7060;43.770;4.008;2024-03-08T11:22:01;99988.13;;;9.76;80.63
13974;BME280;7060;43.770;4.008;2024-03-08T11:24:37;99993.16;;;9.79;79.57
13974;BME280;7060;43.770;4.008;2024-03-08T11:27:07;99987.13;;;9.77;79.39
13974;BME280;7060;43.770;4.008;2024-03-08T11:29:36;99967.94;;;9.74;79.51
13974;BME280;7060;43.770;4.008;2024-03-08T11:32:12;99970.53;;;9.83;79.54
13974;BME280;7060;43.770;4.008;2024-03-08T11:34:47;100006.84;;;9.84;79.63
13974;BME280;7060;43.770;4.008;2024-03-08T11:37:17;99986.34;;;9.85;79.80
13974;BME280;7060;43.770;4.008;2024-03-08T11:39:48;99990.53;;;9.88;79.85
13974;BME280;7060;43.770;4.008;2024-03-08T11:42:16;99988.72;;;9.88;79.88
13974;BME280;7060;43.770;4.008;2024-03-08T11:44:44;99966.38;;;9.89;79.36
13974;BME280;7060;43.770;4.008;2024-03-08T11:47:14;99973.53;;;9.89;79.54
13974;BME280;7060;43.770;4.008;2024-03-08T11:49:43;99979.53;;;9.82;79.34
13974;BME280;7060;43.770;4.008;2024-03-08T11:52:13;99972.34;;;9.83;79.52
13974;BME280;7060;43.770;4.008;2024-03-08T11:54:41;99968.00;;;9.82;78.94
13974;BME280;7060;43.770;4.008;2024-03-08T11:57:11;99968.16;;;9.80;78.87
13974;BME280;7060;43.770;4.008;2024-03-08T11:59:39;99953.31;;;9.78;79.54
13974;BME280;7060;43.770;4.008;2024-03-08T12:02:07;99959.19;;;9.81;79.17
13974;BME280;7060;43.770;4.008;2024-03-08T12:04:38;99962.53;;;9.83;78.84
13974;BME280;7060;43.770;4.008;2024-03-08T12:07:09;99969.63;;;9.75;79.56
13974;BME280;7060;43.770;4.008;2024-03-08T12:09:39;99967.63;;;9.77;79.88
13974;BME280;7060;43.770;4.008;2024-03-08T12:12:13;99960.78;;;9.74;79.58
13974;BME280;7060;43.770;4.008;2024-03-08T12:14:43;99963.75;;;9.71;79.82
13974;BME280;7060;43.770;4.008;2024-03-08T12:17:11;99947.22;;;9.68;80.07
13974;BME280;7060;43.770;4.008;2024-03-08T12:19:46;99938.78;;;9.72;80.08
13974;BME280;7060;43.770;4.008;2024-03-08T12:22:14;99938.78;;;9.72;81.00
13974;BME280;7060;43.770;4.008;2024-03-08T12:24:43;99928.66;;;9.76;80.88
13974;BME280;7060;43.770;4.008;2024-03-08T12:27:18;99926.38;;;9.81;80.49
13974;BME280;7060;43.770;4.008;2024-03-08T12:29:46;99919.34;;;9.80;80.85
13974;BME280;7060;43.770;4.008;2024-03-08T12:32:15;99911.72;;;9.85;80.93
13974;BME280;7060;43.770;4.008;2024-03-08T12:34:51;99927.41;;;9.88;80.61
13974;BME280;7060;43.770;4.008;2024-03-08T12:37:20;99934.66;;;9.78;80.64
13974;BME280;7060;43.770;4.008;2024-03-08T12:39:50;99936.66;;;9.76;81.01
13974;BME280;7060;43.770;4.008;2024-03-08T12:42:18;99937.47;;;9.76;80.71
13974;BME280;7060;43.770;4.008;2024-03-08T12:44:46;99957.28;;;9.74;81.24
13974;BME280;7060;43.770;4.008;2024-03-08T12:47:14;99947.59;;;9.73;81.62
13974;BME280;7060;43.770;4.008;2024-03-08T12:49:42;99929.47;;;9.76;81.93
13974;BME280;7060;43.770;4.008;2024-03-08T12:52:11;99937.47;;;9.76;81.48
13974;BME280;7060;43.770;4.008;2024-03-08T12:54:39;99920.50;;;9.77;81.36
13974;BME280;7060;43.770;4.008;2024-03-08T12:57:08;99902.69;;;9.78;81.31
13974;BME280;7060;43.770;4.008;2024-03-08T12:59:36;99911.81;;;9.75;81.20
13974;BME280;7060;43.770;4.008;2024-03-08T13:02:04;99901.47;;;9.72;82.08
13974;BME280;7060;43.770;4.008;2024-03-08T13:04:33;99905.41;;;9.68;81.72
13974;BME280;7060;43.770;4.008;2024-03-08T13:07:03;99887.84;;;9.75;81.39
13974;BME280;7060;43.770;4.008;2024-03-08T13:09:32;99879.53;;;9.78;81.27
13974;BME280;7060;43.770;4.008;2024-03-08T13:12:04;99886.16;;;9.74;81.44
13974;BME280;7060;43.770;4.008;2024-03-08T13:14:33;99870.31;;;9.73;82.11
13974;BME280;7060;43.770;4.008;2024-03-08T13:17:02;99898.66;;;9.74;82.44
13974;BME280;7060;43.770;4.008;2024-03-08T13:19:31;99883.50;;;9.74;82.18
13974;BME280;7060;43.770;4.008;2024-03-08T13:21:59;99891.66;;;9.73;81.93